Time;durP1;ratioP1;P1;durP2;ratioP2;P2;SDS_P1;SDS_P2;PMS_P1;PMS_P2;Temp;Humidity;BMP_temperature;BMP_pressure;BME280_temperature;BME280_humidity;BME280_pressure;Samples;Min_cycle;Max_cycle;Signal;HPM_P1;HPM_P2
2022/01/17 00:01:50;;;;;;;53.97;44.13;;;;;;;19.52;50.13;101371.03;4987116;28;20027;-70
2022/01/17 00:04:15;;;;;;;51.78;42.35;;;;;;;19.51;50.38;101382.63;4989745;28;20113;-70
2022/01/17 00:06:43;;;;;;;51.88;41.47;;;;;;;19.50;50.51;101388.88;4988961;28;20049;-67
2022/01/17 00:09:09;;;;;;;53.03;43.30;;;;;;;19.49;50.56;101413.66;4991218;28;20373;-68
2022/01/17 00:11:37;;;;;;;49.88;41.78;;;;;;;19.49;50.56;101423.41;4990377;28;20030;-69
2022/01/17 00:14:05;;;;;;;45.40;39.90;;;;;;;19.47;50.56;101426.22;4990818;28;20026;-69
2022/01/17 00:16:41;;;;;;;49.90;39.83;;;;;;;19.46;50.36;101445.72;4986506;28;20398;-68
2022/01/17 00:21:31;;;;;;;37.90;33.15;;;;;;;19.37;50.42;101457.41;4985148;28;19928;-70
2022/01/17 00:23:57;;;;;;;42.83;34.15;;;;;;;19.40;50.31;101464.13;4990088;28;20461;-66
2022/01/17 00:26:22;;;;;;;43.72;34.45;;;;;;;19.40;50.52;101457.00;4989921;28;20042;-66
2022/01/17 00:28:47;;;;;;;41.38;35.00;;;;;;;19.41;50.27;101463.13;4990948;28;20473;-70
2022/01/17 00:31:13;;;;;;;38.22;29.48;;;;;;;19.39;50.41;101468.59;4989318;28;20038;-69
2022/01/17 00:33:38;;;;;;;43.85;36.35;;;;;;;19.39;50.71;101476.50;4990115;28;20504;-66
2022/01/17 00:36:04;;;;;;;38.58;33.35;;;;;;;19.39;50.39;101471.22;4989166;28;20116;-68
2022/01/17 00:38:29;;;;;;;36.63;30.70;;;;;;;19.37;50.48;101461.84;4986258;28;20033;-67
2022/01/17 00:40:54;;;;;;;38.70;30.70;;;;;;;19.37;50.51;101453.94;4983090;28;20037;-69
2022/01/17 00:43:20;;;;;;;35.10;28.80;;;;;;;19.35;50.51;101454.13;4988978;28;20034;-67
2022/01/17 00:45:45;;;;;;;34.58;30.77;;;;;;;19.35;50.59;101454.13;4989749;28;20037;-68
2022/01/17 00:48:12;;;;;;;34.20;29.08;;;;;;;19.34;50.65;101463.03;4990360;28;20092;-68
2022/01/17 00:50:38;;;;;;;39.67;32.13;;;;;;;19.34;50.44;101463.03;4984934;28;20034;-70
2022/01/17 00:53:08;;;;;;;37.72;32.30;;;;;;;19.32;50.45;101459.75;4991441;28;20542;-67
2022/01/17 00:55:36;;;;;;;36.28;32.03;;;;;;;19.32;50.47;101458.94;4992239;28;20053;-70
2022/01/17 00:58:02;;;;;;;36.95;31.35;;;;;;;19.33;50.52;101450.00;4977162;28;20031;-70
2022/01/17 01:00:28;;;;;;;34.53;30.27;;;;;;;19.33;50.28;101453.47;4987620;28;20038;-67
2022/01/17 01:02:55;;;;;;;37.20;28.75;;;;;;;19.33;50.05;101453.47;4993607;28;20524;-69
2022/01/17 01:05:21;;;;;;;35.88;29.00;;;;;;;19.34;50.05;101456.94;4990901;28;20153;-70
2022/01/17 01:07:46;;;;;;;33.65;27.75;;;;;;;19.34;49.69;101465.69;4989768;28;20046;-67
2022/01/17 01:10:12;;;;;;;34.15;27.45;;;;;;;19.34;49.54;101473.59;4990149;28;20520;-70
2022/01/17 01:12:45;;;;;;;30.52;26.75;;;;;;;19.33;49.34;101479.88;4990328;28;20549;-67
2022/01/17 01:15:18;;;;;;;33.20;28.13;;;;;;;19.34;49.37;101486.81;4990860;28;20073;-69
2022/01/17 01:17:53;;;;;;;35.92;29.25;;;;;;;19.32;49.58;101475.59;4988973;28;20483;-66
2022/01/17 01:28:15;;;;;;;26.75;23.73;;;;;;;19.27;49.59;101485.06;4990534;28;20049;-68
2022/01/17 01:30:45;;;;;;;27.23;23.10;;;;;;;19.26;49.44;101483.41;4988176;28;20026;-69
2022/01/17 01:33:11;;;;;;;32.38;26.08;;;;;;;19.24;49.56;101480.94;4990581;28;20520;-68
2022/01/17 01:35:44;;;;;;;29.08;23.02;;;;;;;19.23;49.57;101476.66;4990099;28;20027;-70
2022/01/17 01:38:10;;;;;;;24.95;20.80;;;;;;;19.23;49.82;101481.94;4989553;28;20445;-69
2022/01/17 01:40:36;;;;;;;21.45;18.92;;;;;;;19.21;49.81;101481.28;4989009;28;20031;-68
2022/01/17 01:43:01;;;;;;;20.95;18.75;;;;;;;19.20;49.68;101493.69;4989726;28;20022;-70
2022/01/17 01:45:27;;;;;;;25.30;20.80;;;;;;;19.19;49.74;101492.03;4989977;28;20026;-67
2022/01/17 01:47:53;;;;;;;23.35;19.63;;;;;;;19.18;49.55;101498.31;4988688;28;20045;-70
2022/01/17 01:50:19;;;;;;;21.55;18.13;;;;;;;19.17;49.62;101491.38;4992418;28;20042;-70
2022/01/17 01:52:44;;;;;;;26.13;20.92;;;;;;;19.18;49.62;101492.22;4988301;28;20033;-70
2022/01/17 01:55:16;;;;;;;25.40;20.90;;;;;;;19.16;49.56;101486.28;4989663;28;20037;-68
2022/01/17 01:57:43;;;;;;;23.52;19.73;;;;;;;19.16;49.32;101478.34;4987917;28;20041;-69
2022/01/17 02:00:10;;;;;;;21.70;19.00;;;;;;;19.15;49.05;101480.19;4989198;28;20137;-69
2022/01/17 02:02:36;;;;;;;23.42;18.83;;;;;;;19.15;48.92;101485.47;4984845;28;20515;-68
2022/01/17 02:05:03;;;;;;;22.88;20.30;;;;;;;19.15;48.75;101489.91;4990880;28;20105;-71
2022/01/17 02:07:29;;;;;;;20.58;18.35;;;;;;;19.14;48.86;101494.38;4987333;28;20050;-68
2022/01/17 02:09:55;;;;;;;21.40;18.70;;;;;;;19.13;48.92;101492.75;4989971;28;20415;-69
2022/01/17 02:12:21;;;;;;;21.30;18.60;;;;;;;19.14;48.86;101490.91;4989424;28;20076;-66
2022/01/17 02:14:53;;;;;;;21.05;18.70;;;;;;;19.14;48.98;101488.28;4989696;28;20027;-69
2022/01/17 02:17:20;;;;;;;22.00;17.88;;;;;;;19.13;49.13;101484.81;4991340;28;20030;-70
2022/01/17 02:19:52;;;;;;;24.17;18.42;;;;;;;19.12;49.02;101485.00;4993082;28;20019;-70
2022/01/17 02:22:17;;;;;;;21.00;16.52;;;;;;;19.12;49.10;101487.63;4982860;28;20041;-69
2022/01/17 02:24:43;;;;;;;16.83;14.95;;;;;;;19.11;49.25;101488.63;4987506;28;20026;-68
2022/01/17 02:27:08;;;;;;;20.42;17.25;;;;;;;19.10;49.29;101490.44;4974562;28;20038;-69
2022/01/17 02:29:34;;;;;;;17.67;14.30;;;;;;;19.08;49.42;101479.22;4985528;28;20122;-70
2022/01/17 02:31:59;;;;;;;20.50;17.25;;;;;;;19.07;49.55;101469.66;4986887;28;20486;-71
2022/01/17 02:34:25;;;;;;;18.40;15.60;;;;;;;19.07;49.42;101466.19;4989632;28;20108;-68
2022/01/17 02:36:50;;;;;;;19.33;15.60;;;;;;;19.06;49.56;101469.84;4988486;28;20030;-70
2022/01/17 02:39:16;;;;;;;17.25;14.75;;;;;;;19.05;49.44;101462.91;4987807;28;20034;-70
2022/01/17 02:41:49;;;;;;;18.67;15.43;;;;;;;19.04;49.47;101442.78;4988635;28;20023;-67
2022/01/17 02:44:15;;;;;;;18.20;16.23;;;;;;;19.03;49.42;101433.22;4987928;28;20076;-67
2022/01/17 02:46:40;;;;;;;16.60;14.68;;;;;;;19.02;49.36;101421.81;4988341;28;20058;-68
2022/01/17 02:49:06;;;;;;;18.15;16.25;;;;;;;19.01;49.31;101417.53;4989309;28;20394;-67
2022/01/17 02:51:32;;;;;;;18.95;14.82;;;;;;;19.01;49.38;101424.66;4988773;28;20050;-69
2022/01/17 02:53:58;;;;;;;17.67;15.07;;;;;;;19.00;49.38;101423.81;4987617;28;20581;-69
2022/01/17 02:56:24;;;;;;;18.63;15.25;;;;;;;19.01;49.37;101416.72;4988710;28;20114;-70
2022/01/17 02:58:50;;;;;;;16.27;14.30;;;;;;;19.00;49.32;101423.00;4988085;28;20038;-68
2022/01/17 03:01:19;;;;;;;17.00;14.98;;;;;;;18.99;49.45;101421.34;5199880;23;20119;-69
2022/01/17 03:03:46;;;;;;;15.75;13.68;;;;;;;18.99;49.46;101439.84;5003233;28;20070;-67
2022/01/17 03:06:12;;;;;;;17.60;15.00;;;;;;;19.00;49.29;101459.97;5007850;28;20040;-70
2022/01/17 03:08:40;;;;;;;18.23;15.07;;;;;;;18.99;49.47;101468.88;5007953;28;20498;-70
2022/01/17 03:11:08;;;;;;;16.67;14.55;;;;;;;18.99;49.23;101467.06;5008655;28;20033;-68
2022/01/17 03:13:36;;;;;;;14.85;13.10;;;;;;;18.99;49.30;101447.75;5008444;28;20100;-68
2022/01/17 03:16:15;;;;;;;17.20;13.82;;;;;;;18.96;49.35;101438.38;5007985;28;20370;-69
2022/01/17 03:18:52;;;;;;;16.35;14.65;;;;;;;18.97;49.23;101431.28;5008256;28;20060;-69
2022/01/17 03:21:19;;;;;;;15.35;12.82;;;;;;;18.98;49.22;101435.56;5007976;28;20032;-67
2022/01/17 03:23:46;;;;;;;13.85;12.38;;;;;;;18.99;49.06;101437.19;5008130;28;20083;-69
2022/01/17 03:26:11;;;;;;;13.93;12.52;;;;;;;18.99;49.09;101434.56;5008430;28;20061;-69
2022/01/17 03:28:38;;;;;;;14.90;12.52;;;;;;;18.98;49.14;101427.63;5007992;28;20069;-69
2022/01/17 03:31:05;;;;;;;13.65;12.25;;;;;;;18.96;48.98;101427.81;5008155;28;20427;-69
2022/01/17 03:33:30;;;;;;;14.75;12.40;;;;;;;18.96;48.96;101421.72;5007979;28;20124;-67
2022/01/17 03:35:56;;;;;;;13.10;11.60;;;;;;;18.94;49.03;101413.13;5007805;28;20117;-66
2022/01/17 03:38:26;;;;;;;13.70;12.02;;;;;;;18.94;49.01;101407.84;5008178;28;20508;-70
2022/01/17 03:40:52;;;;;;;13.82;12.32;;;;;;;18.92;49.02;101415.13;5008021;28;20476;-69
2022/01/17 03:43:19;;;;;;;12.95;11.43;;;;;;;18.92;49.00;101415.94;5008220;28;20117;-69
2022/01/17 03:45:46;;;;;;;15.82;11.52;;;;;;;18.90;49.05;101424.06;5008259;28;20778;-67
2022/01/17 03:48:12;;;;;;;12.80;10.15;;;;;;;18.89;49.26;101418.97;5009158;28;20049;-69
2022/01/17 03:50:38;;;;;;;13.23;11.18;;;;;;;18.90;49.11;101428.53;5008538;28;20061;-67
2022/01/17 03:53:04;;;;;;;14.00;11.68;;;;;;;18.88;49.11;101422.63;5008001;28;20555;-69
2022/01/17 03:55:32;;;;;;;12.10;10.75;;;;;;;18.87;49.17;101429.72;5007977;28;20057;-70
2022/01/17 03:57:58;;;;;;;12.00;10.70;;;;;;;18.86;49.05;101433.34;5007929;28;20041;-69
2022/01/17 04:00:29;;;;;;;12.90;10.25;;;;;;;18.84;49.06;101445.91;5007800;28;20029;-70
2022/01/17 04:02:57;;;;;;;11.45;10.30;;;;;;;18.85;49.06;101442.25;5007639;28;20046;-66
2022/01/17 04:05:22;;;;;;;11.93;10.60;;;;;;;18.84;49.21;101435.34;5007879;28;20053;-67
2022/01/17 04:07:48;;;;;;;11.32;9.73;;;;;;;18.83;49.09;101431.06;5007377;28;20532;-69
2022/01/17 04:10:15;;;;;;;11.35;9.32;;;;;;;18.83;48.98;101433.69;5007512;28;20500;-69
2022/01/17 04:12:41;;;;;;;10.65;9.35;;;;;;;18.81;48.84;101422.50;5009401;28;20404;-68
2022/01/17 04:15:08;;;;;;;13.27;9.85;;;;;;;18.81;48.88;101433.03;5011209;28;20734;-69
2022/01/17 04:17:34;;;;;;;10.93;9.82;;;;;;;18.80;48.86;101439.31;5010885;28;20038;-67
2022/01/17 04:20:03;;;;;;;12.10;9.45;;;;;;;18.79;48.53;101440.31;5011298;28;20103;-67
2022/01/17 04:22:36;;;;;;;10.88;9.13;;;;;;;18.78;48.66;101436.03;5009894;28;20105;-69
2022/01/17 04:25:04;;;;;;;10.98;9.40;;;;;;;18.78;48.50;101427.28;5011182;28;20069;-69
2022/01/17 04:27:29;;;;;;;10.10;8.73;;;;;;;18.78;48.76;101430.75;5010970;28;20041;-68
2022/01/17 04:29:55;;;;;;;10.38;8.93;;;;;;;18.77;48.76;101429.13;5011069;28;20026;-68
2022/01/17 04:32:20;;;;;;;10.73;8.68;;;;;;;18.78;48.74;101432.56;5011293;28;20061;-70
2022/01/17 04:34:46;;;;;;;10.77;8.82;;;;;;;18.77;48.71;101434.38;5011404;28;20477;-69
2022/01/17 04:37:11;;;;;;;10.95;8.07;;;;;;;18.76;48.72;101437.19;5011411;28;20389;-69
2022/01/17 04:39:37;;;;;;;8.90;7.93;;;;;;;18.75;48.57;101439.03;5009881;28;20022;-70
2022/01/17 04:42:10;;;;;;;10.10;8.45;;;;;;;18.75;48.48;101438.19;5010885;28;20322;-67
2022/01/17 04:47:20;;;;;;;7.28;6.35;;;;;;;18.74;48.74;101440.03;5010845;28;20455;-70
2022/01/17 04:49:46;;;;;;;10.20;7.45;;;;;;;18.72;48.85;101441.19;5010794;28;20045;-70
2022/01/17 04:52:13;;;;;;;9.05;8.10;;;;;;;18.70;48.83;101441.34;5010760;28;20026;-68
2022/01/17 04:54:41;;;;;;;8.48;7.68;;;;;;;18.70;48.73;101443.19;5010662;28;20477;-66
2022/01/17 04:57:08;;;;;;;9.80;7.85;;;;;;;18.68;48.69;101435.44;5010412;28;20113;-69
2022/01/17 04:59:33;;;;;;;11.02;7.82;;;;;;;18.69;48.62;101433.63;5010568;28;20041;-70
2022/01/17 05:01:59;;;;;;;9.00;7.60;;;;;;;18.67;48.57;101433.78;5010486;28;20129;-68
2022/01/17 05:04:24;;;;;;;10.00;7.85;;;;;;;18.68;48.61;101437.25;5010629;28;20366;-70
2022/01/17 05:06:49;;;;;;;9.15;7.95;;;;;;;18.67;48.54;101444.34;5010379;28;20477;-68
2022/01/17 05:09:15;;;;;;;8.32;7.53;;;;;;;18.68;48.57;101453.91;5010560;28;20444;-69
2022/01/17 05:11:42;;;;;;;8.95;7.65;;;;;;;18.69;48.69;101450.28;5010134;28;20026;-68
2022/01/17 05:14:07;;;;;;;6.43;5.57;;;;;;;18.70;48.81;101453.75;5010458;28;20508;-70
2022/01/17 05:16:37;;;;;;;6.78;5.43;;;;;;;18.70;48.76;101454.56;5010602;28;20041;-66
2022/01/17 05:21:47;;;;;;;7.20;6.45;;;;;;;18.70;48.83;101449.28;5010532;28;20049;-69
2022/01/17 05:24:12;;;;;;;7.40;6.03;;;;;;;18.73;48.81;101454.22;5009216;28;20416;-69
2022/01/17 05:26:38;;;;;;;6.60;5.97;;;;;;;18.76;48.99;101451.22;5009850;28;20025;-70
2022/01/17 05:29:03;;;;;;;9.18;6.05;;;;;;;18.80;49.00;101444.59;5010485;28;20037;-68
2022/01/17 05:31:29;;;;;;;7.68;6.65;;;;;;;18.84;48.85;101443.25;5010033;28;20030;-68
2022/01/17 05:33:55;;;;;;;10.93;6.20;;;;;;;18.87;48.79;101442.91;5009942;28;20315;-69
2022/01/17 05:36:20;;;;;;;8.02;6.05;;;;;;;18.92;48.69;101438.91;5009595;28;20030;-66
2022/01/17 05:38:46;;;;;;;6.10;5.50;;;;;;;18.95;48.61;101457.84;5009981;28;20025;-70
2022/01/17 05:41:11;;;;;;;6.72;5.43;;;;;;;18.99;48.54;101471.53;5010001;28;20038;-70
2022/01/17 05:43:37;;;;;;;9.75;5.72;;;;;;;19.02;48.49;101468.53;5009360;28;20030;-67
2022/01/17 05:46:02;;;;;;;6.78;5.50;;;;;;;19.05;48.36;101463.72;5009606;28;20036;-68
2022/01/17 05:48:28;;;;;;;6.05;5.45;;;;;;;19.09;48.32;101461.56;5009305;28;20484;-68
2022/01/17 05:50:53;;;;;;;6.47;5.63;;;;;;;19.12;48.30;101469.13;5009594;28;20030;-69
2022/01/17 05:53:18;;;;;;;6.18;5.20;;;;;;;19.14;48.48;101478.53;5009218;28;20448;-68
2022/01/17 05:55:44;;;;;;;7.40;5.30;;;;;;;19.15;48.36;101468.78;5009707;28;20377;-67
2022/01/17 05:58:11;;;;;;;6.90;5.45;;;;;;;19.17;48.26;101466.78;5009663;28;20108;-68
2022/01/17 06:00:36;;;;;;;6.97;5.10;;;;;;;19.18;48.09;101466.63;5009466;28;20040;-69
2022/01/17 06:03:02;;;;;;;6.10;4.97;;;;;;;19.21;48.17;101468.09;5009111;28;20042;-70
2022/01/17 06:05:27;;;;;;;6.25;4.68;;;;;;;19.22;48.08;101469.72;5009153;28;20025;-69
2022/01/17 06:07:53;;;;;;;5.40;4.90;;;;;;;19.23;48.12;101474.00;5008839;28;20057;-68
2022/01/17 06:10:18;;;;;;;5.82;4.63;;;;;;;19.25;48.15;101474.66;5009125;28;20113;-67
2022/01/17 06:12:44;;;;;;;5.15;4.65;;;;;;;19.27;48.20;101467.38;5008955;28;20119;-66
2022/01/17 06:15:09;;;;;;;6.38;4.22;;;;;;;19.29;48.09;101469.84;5009164;28;20040;-70
2022/01/17 06:17:35;;;;;;;4.43;4.03;;;;;;;19.30;48.00;101469.66;5008976;28;20034;-70
2022/01/17 06:20:00;;;;;;;4.65;4.03;;;;;;;19.32;48.04;101469.50;5003801;28;20068;-69
2022/01/17 06:22:26;;;;;;;6.93;4.68;;;;;;;19.33;47.86;101471.97;4988920;28;20891;-67
2022/01/17 06:24:52;;;;;;;5.30;4.13;;;;;;;19.35;47.92;101464.69;4989380;28;20034;-69
2022/01/17 06:27:18;;;;;;;6.10;3.95;;;;;;;19.36;47.87;101468.16;4989390;28;20034;-69
2022/01/17 06:29:43;;;;;;;8.77;4.82;;;;;;;19.38;47.89;101472.22;4991352;28;20038;-69
2022/01/17 06:32:09;;;;;;;4.57;4.18;;;;;;;19.40;47.71;101461.47;4993825;28;20025;-70
2022/01/17 06:34:34;;;;;;;5.68;4.40;;;;;;;19.40;47.73;101464.94;4989142;28;20026;-67
2022/01/17 06:36:59;;;;;;;4.65;3.58;;;;;;;19.43;47.60;101461.94;4988790;28;20528;-70
2022/01/17 06:39:25;;;;;;;3.63;3.33;;;;;;;19.45;47.60;101462.59;4989262;28;20046;-69
2022/01/17 06:41:50;;;;;;;4.55;4.15;;;;;;;19.47;47.42;101471.16;4990223;28;20026;-68
2022/01/17 06:44:16;;;;;;;4.72;4.20;;;;;;;19.50;47.35;101462.88;4988783;28;20559;-70
2022/01/17 06:46:42;;;;;;;4.20;3.55;;;;;;;19.53;47.38;101467.00;4988671;28;20516;-68
2022/01/17 06:49:08;;;;;;;4.80;3.70;;;;;;;19.51;47.39;101463.72;4989782;28;20030;-68
2022/01/17 06:51:34;;;;;;;5.25;3.63;;;;;;;19.47;47.47;101473.81;4988563;28;20133;-70
2022/01/17 06:53:59;;;;;;;4.30;3.88;;;;;;;19.46;47.46;101471.34;4989628;28;20554;-67
2022/01/17 06:56:25;;;;;;;5.45;3.53;;;;;;;19.44;47.44;101474.16;4988639;28;20026;-67
2022/01/17 06:58:50;;;;;;;3.47;3.03;;;;;;;19.45;47.59;101480.25;4989482;28;20285;-68
2022/01/17 07:01:19;;;;;;;4.13;3.47;;;;;;;19.45;47.27;101483.72;4988288;28;20026;-70
2022/01/17 07:03:44;;;;;;;7.55;3.72;;;;;;;19.46;47.21;101492.47;4988671;28;20094;-66
2022/01/17 07:06:09;;;;;;;5.15;2.90;;;;;;;19.45;47.33;101511.97;4988713;28;20577;-67
2022/01/17 07:08:35;;;;;;;3.63;3.10;;;;;;;19.45;47.30;101501.41;4989667;28;20041;-68
2022/01/17 07:11:00;;;;;;;4.53;3.78;;;;;;;19.45;47.18;101504.88;4988609;28;20401;-69
2022/01/17 07:13:26;;;;;;;4.07;3.65;;;;;;;19.45;47.20;101511.97;5003316;28;20042;-67
2022/01/17 07:15:51;;;;;;;3.78;2.90;;;;;;;19.45;47.34;101515.44;4995220;28;20482;-68
2022/01/17 07:18:17;;;;;;;4.22;3.38;;;;;;;19.45;47.11;101496.94;5008789;28;20123;-69
2022/01/17 07:20:42;;;;;;;4.30;2.88;;;;;;;19.45;47.03;101499.59;5008711;28;20038;-69
2022/01/17 07:23:07;;;;;;;4.95;3.22;;;;;;;19.45;46.91;101501.41;5008985;28;20107;-66
2022/01/17 07:25:38;;;;;;;2.75;2.53;;;;;;;19.45;46.74;101496.94;4998436;28;20117;-69
2022/01/17 07:28:04;;;;;;;3.92;3.03;;;;;;;19.46;46.96;101506.50;4987999;28;20532;-68
2022/01/17 07:30:30;;;;;;;3.20;2.90;;;;;;;19.46;46.95;101506.50;4987769;28;20482;-68
2022/01/17 07:32:56;;;;;;;3.03;2.72;;;;;;;19.46;46.81;101519.72;4988201;28;20026;-69
2022/01/17 07:35:21;;;;;;;2.75;2.45;;;;;;;19.45;46.73;101533.94;4989893;28;20038;-68
2022/01/17 07:37:46;;;;;;;3.05;2.70;;;;;;;19.46;46.90;101551.44;5000264;28;20098;-68
2022/01/17 07:40:12;;;;;;;2.80;2.60;;;;;;;19.45;46.92;101555.09;5000520;28;20473;-68
2022/01/17 07:42:37;;;;;;;3.42;3.10;;;;;;;19.44;46.82;101558.72;5007852;28;20022;-68
2022/01/17 07:45:11;;;;;;;4.22;2.75;;;;;;;19.51;47.08;101557.06;5006109;28;20040;-69
2022/01/17 07:47:44;;;;;;;3.35;3.03;;;;;;;19.54;47.53;101556.72;5010044;28;20083;-67
2022/01/17 07:50:16;;;;;;;3.15;2.83;;;;;;;19.53;47.76;101559.53;5010114;28;20034;-70
2022/01/17 07:52:42;;;;;;;3.72;3.03;;;;;;;19.55;48.24;101536.38;5012259;28;20064;-68
2022/01/17 07:55:08;;;;;;;5.32;3.22;;;;;;;19.55;48.70;101529.28;5011955;28;20037;-67
2022/01/17 07:57:35;;;;;;;5.60;2.90;;;;;;;19.54;48.69;101517.06;5010157;28;20121;-68
2022/01/17 08:00:01;;;;;;;4.95;3.15;;;;;;;19.53;48.68;101506.66;4998781;28;20275;-67
2022/01/17 08:02:27;;;;;;;4.35;3.00;;;;;;;19.54;48.32;101527.63;5007912;28;20073;-68
2022/01/17 08:04:52;;;;;;;5.22;2.63;;;;;;;19.54;48.32;101526.81;5002520;28;20109;-69
2022/01/17 08:07:18;;;;;;;7.60;2.60;;;;;;;19.55;48.30;101510.78;4997689;28;20127;-69
2022/01/17 08:09:43;;;;;;;5.00;2.10;;;;;;;19.57;48.37;101507.13;4996647;28;20041;-68
2022/01/17 08:12:09;;;;;;;6.20;2.50;;;;;;;19.57;48.54;101512.41;4996777;28;20038;-68
2022/01/17 08:14:35;;;;;;;2.95;2.20;;;;;;;19.57;48.66;101521.16;5005965;28;20065;-68
2022/01/17 08:17:02;;;;;;;2.95;2.50;;;;;;;19.57;48.82;101531.75;4996259;28;20030;-67
2022/01/17 08:19:28;;;;;;;3.72;2.63;;;;;;;19.57;49.22;101528.28;5001263;28;20037;-69
2022/01/17 08:21:53;;;;;;;6.47;2.97;;;;;;;19.60;49.81;101541.16;5000611;28;20061;-67
2022/01/17 08:24:20;;;;;;;10.98;2.92;;;;;;;19.59;49.72;101539.50;5009635;28;20121;-66
2022/01/17 08:26:46;;;;;;;13.23;3.05;;;;;;;19.54;49.67;101527.63;4999170;28;20029;-67
2022/01/17 08:29:12;;;;;;;6.07;2.53;;;;;;;19.52;49.55;101540.19;5003605;28;20478;-68
2022/01/17 08:31:38;;;;;;;9.15;2.90;;;;;;;19.51;49.34;101545.66;5005804;28;20042;-66
2022/01/17 08:34:03;;;;;;;4.63;2.45;;;;;;;19.50;49.44;101549.28;4999662;28;20555;-67
2022/01/17 08:36:29;;;;;;;2.85;1.92;;;;;;;19.46;49.14;101545.34;4991582;28;20086;-67
2022/01/17 08:38:54;;;;;;;5.10;1.85;;;;;;;19.42;49.36;101539.56;4997866;28;20026;-68
2022/01/17 08:41:20;;;;;;;8.55;2.72;;;;;;;19.42;49.67;101533.47;4991419;28;20042;-65
2022/01/17 08:43:49;;;;;;;3.70;2.30;;;;;;;19.44;49.66;101529.66;5003523;28;20025;-67
2022/01/17 08:46:15;;;;;;;7.35;2.30;;;;;;;19.49;49.61;101542.34;4992020;28;20050;-68
2022/01/17 08:48:41;;;;;;;5.40;2.67;;;;;;;19.49;49.52;101539.69;4997697;28;20029;-66
2022/01/17 08:51:07;;;;;;;5.30;2.60;;;;;;;19.48;49.37;101532.78;5010745;28;20512;-68
2022/01/17 08:53:33;;;;;;;5.78;2.28;;;;;;;19.47;49.70;101526.66;5013482;28;20103;-65
2022/01/17 08:55:59;;;;;;;8.15;2.33;;;;;;;19.46;50.18;101525.03;5011704;28;20527;-67
2022/01/17 08:58:25;;;;;;;6.43;2.28;;;;;;;19.44;50.37;101516.44;4999037;28;20034;-68
2022/01/17 09:00:50;;;;;;;4.15;2.00;;;;;;;19.41;49.99;101510.69;5001815;28;20113;-65
2022/01/17 09:03:16;;;;;;;7.40;2.10;;;;;;;19.40;49.86;101512.50;5011304;28;20115;-69
2022/01/17 09:05:42;;;;;;;3.92;1.75;;;;;;;19.42;49.60;101536.13;5010086;28;20076;-70
2022/01/17 09:08:11;;;;;;;6.70;2.08;;;;;;;19.43;49.16;101566.81;5006877;28;20042;-66
2022/01/17 09:10:37;;;;;;;7.30;1.90;;;;;;;19.44;49.16;101573.75;4997828;28;20334;-69
2022/01/17 09:13:03;;;;;;;6.35;2.58;;;;;;;19.44;49.10;101595.72;5006650;28;20141;-68
2022/01/17 09:15:30;;;;;;;4.10;2.33;;;;;;;19.45;48.75;101618.50;5001130;28;20112;-69
2022/01/17 09:17:56;;;;;;;4.82;2.17;;;;;;;19.44;48.57;101610.75;5004130;28;20037;-69
2022/01/17 09:20:21;;;;;;;11.70;2.08;;;;;;;19.42;48.39;101605.66;4999822;28;20363;-66
2022/01/17 09:22:47;;;;;;;4.70;1.80;;;;;;;19.40;48.29;101614.75;4999496;28;20038;-70
2022/01/17 09:25:12;;;;;;;2.35;1.63;;;;;;;19.39;48.32;101592.78;4994439;28;20513;-67
2022/01/17 09:27:38;;;;;;;5.40;2.28;;;;;;;19.37;48.25;101563.09;4997898;28;20045;-67
2022/01/17 09:30:07;;;;;;;7.80;2.85;;;;;;;19.36;48.11;101576.47;4994625;28;20034;-67
2022/01/17 09:32:33;;;;;;;6.80;2.65;;;;;;;19.34;47.73;101573.19;4997333;28;20442;-69
2022/01/17 09:34:58;;;;;;;11.52;2.70;;;;;;;19.33;47.40;101576.84;4994188;28;20109;-66
2022/01/17 09:37:24;;;;;;;10.10;2.90;;;;;;;19.30;47.05;101585.09;5009441;28;20022;-66
2022/01/17 09:39:49;;;;;;;12.15;3.05;;;;;;;19.28;47.41;101566.78;5007548;28;20087;-66
2022/01/17 09:42:15;;;;;;;12.65;3.10;;;;;;;19.27;47.50;101564.31;4996283;28;20027;-69
2022/01/17 09:44:40;;;;;;;6.38;2.95;;;;;;;19.28;47.35;101573.88;5002376;28;20045;-69
2022/01/17 09:47:08;;;;;;;12.07;3.03;;;;;;;19.27;47.17;101559.84;5009862;28;20096;-69
2022/01/17 09:49:43;;;;;;;9.07;3.45;;;;;;;19.27;47.00;101544.00;4997980;28;20111;-66
2022/01/17 09:54:53;;;;;;;6.53;2.95;;;;;;;19.23;46.57;101526.84;5006023;28;20056;-68
2022/01/17 09:57:19;;;;;;;6.70;2.55;;;;;;;19.23;46.29;101534.78;5000977;28;20026;-70
2022/01/17 09:59:45;;;;;;;5.07;2.90;;;;;;;19.21;46.20;101544.69;4990178;28;20029;-70
2022/01/17 10:02:11;;;;;;;7.00;2.72;;;;;;;19.21;46.13;101544.69;5006684;28;20045;-67
2022/01/17 10:04:37;;;;;;;3.80;2.42;;;;;;;19.21;46.13;101547.34;5010242;28;20581;-69
2022/01/17 10:07:05;;;;;;;4.88;3.00;;;;;;;19.20;46.18;101548.34;5009754;28;20365;-69
2022/01/17 10:09:33;;;;;;;3.92;2.50;;;;;;;19.21;46.25;101547.34;5009540;28;20456;-66
2022/01/17 10:12:11;;;;;;;4.25;2.15;;;;;;;19.19;46.27;101525.56;5001382;28;20034;-68
2022/01/17 10:14:41;;;;;;;4.00;2.00;;;;;;;19.19;46.37;101518.44;5007515;28;20464;-66
2022/01/17 10:17:15;;;;;;;6.25;2.20;;;;;;;19.18;46.47;101530.03;5004262;28;20088;-66
2022/01/17 10:19:42;;;;;;;7.93;2.33;;;;;;;19.20;46.33;101527.19;4990198;28;20026;-69
2022/01/17 10:22:21;;;;;;;4.05;1.95;;;;;;;19.18;46.38;101531.84;4990110;28;20470;-67
2022/01/17 10:24:58;;;;;;;5.60;3.13;;;;;;;19.17;46.36;101516.97;4990305;28;20034;-67
2022/01/17 10:35:27;;;;;;;4.43;2.42;;;;;;;19.07;46.45;101519.03;5000113;28;20096;-67
2022/01/17 10:37:57;;;;;;;3.95;2.25;;;;;;;19.01;46.42;101499.41;5003053;28;20737;-68
2022/01/17 10:40:24;;;;;;;4.88;2.38;;;;;;;19.03;46.62;101502.69;4999152;28;20026;-68
2022/01/17 10:42:50;;;;;;;3.97;2.20;;;;;;;19.01;46.50;101514.44;4991513;28;20037;-69
2022/01/17 10:45:21;;;;;;;4.57;2.70;;;;;;;18.98;46.57;101515.59;4994647;28;20030;-70
2022/01/17 10:47:48;;;;;;;4.18;2.38;;;;;;;18.97;46.27;101508.69;5009531;28;20097;-68
2022/01/17 10:50:18;;;;;;;4.50;2.72;;;;;;;18.97;46.54;101502.56;5009596;28;20587;-67
2022/01/17 10:52:47;;;;;;;3.60;1.98;;;;;;;18.95;46.49;101500.09;5008820;28;20036;-68
2022/01/17 10:55:24;;;;;;;5.63;2.22;;;;;;;18.94;46.51;101502.91;5004749;28;20030;-69
2022/01/17 10:57:56;;;;;;;3.67;2.28;;;;;;;18.90;46.56;101505.13;5001558;28;20416;-68
2022/01/17 11:00:25;;;;;;;3.10;1.85;;;;;;;18.90;46.41;101511.19;4999813;28;20029;-68
2022/01/17 11:02:56;;;;;;;4.28;2.15;;;;;;;18.89;46.30;101511.38;5000780;28;20139;-66
2022/01/17 11:05:22;;;;;;;4.68;1.83;;;;;;;18.88;46.37;101510.56;4996117;28;20042;-67
2022/01/17 11:07:53;;;;;;;4.65;1.90;;;;;;;18.88;46.35;101510.56;4998396;28;20050;-67
2022/01/17 11:10:55;;;;;;;3.55;2.33;;;;;;;18.87;46.83;101508.09;4992889;28;20046;-69
2022/01/17 11:13:24;;;;;;;4.38;1.48;;;;;;;18.90;47.14;101511.19;5008641;28;20159;-66
2022/01/17 11:15:54;;;;;;;3.25;2.30;;;;;;;18.94;47.17;101502.91;5002520;28;20586;-66
2022/01/17 11:18:24;;;;;;;4.95;1.65;;;;;;;18.95;47.14;101500.09;5005596;28;20424;-68
2022/01/17 11:20:56;;;;;;;11.77;2.90;;;;;;;18.97;47.00;101502.56;5004806;28;20040;-67
2022/01/17 11:23:22;;;;;;;8.20;2.08;;;;;;;18.98;46.96;101481.28;5001083;28;20030;-68
2022/01/17 11:25:53;;;;;;;9.55;2.60;;;;;;;18.98;46.98;101493.66;5004829;28;20125;-67
2022/01/17 11:28:22;;;;;;;11.02;2.63;;;;;;;18.97;46.99;101502.56;5000173;28;20441;-69
2022/01/17 11:30:49;;;;;;;8.02;3.17;;;;;;;18.96;46.93;101495.66;5006417;28;20096;-70
2022/01/17 11:33:14;;;;;;;7.82;1.90;;;;;;;18.95;46.81;101488.72;5007680;28;20027;-67
2022/01/17 11:35:42;;;;;;;9.68;2.30;;;;;;;18.94;46.76;101482.63;5007335;28;20042;-67
2022/01/17 11:38:19;;;;;;;4.90;1.77;;;;;;;18.92;46.66;101515.47;5009501;28;20591;-70
2022/01/17 11:40:45;;;;;;;6.88;2.50;;;;;;;18.89;46.36;101517.50;5005193;28;20048;-69
2022/01/17 11:43:35;;;;;;;4.38;1.73;;;;;;;18.86;46.23;101528.41;4996314;28;20149;-68
2022/01/17 11:46:20;;;;;;;7.53;1.88;;;;;;;18.85;46.36;101521.47;4988666;28;20509;-70